KOKK

Kokomo Municipal Airport

Kokomo, Indiana, USA
METAR KOKK 170356Z AUTO 23011KT 10SM CLR 07/02 A3013 RMK AO2 SLP209 T00720017
Observed Flight Rules
Oct-17 @ 03:56 UTC (an hour ago) Visual Flight Rules
Wind Visibility Clouds
230° at 11 knots 10 miles
  • Clear skies
Temperatures Readings
Current 7°C / 45°F
Dewpoint 2°C / 36°F
Humidity 71%
Altimeter 30.13" Hg
Pressure 1020.9 hPa
Elevation 253
METAR KOKK 170356Z AUTO 23011KT 10SM CLR 07/02 A3013 RMK AO2 SLP209 T00720017
Observed Flight Rules
Oct-17 @ 03:56 UTC
(an hour ago)
VFR
Wind Visibility
230° at 11 knots 10 miles
Clouds
  • Clear skies
Temperature Dewpoint
7°C / 45°F 2°C / 36°F
Humidity Altimeter Pressure
71% 30.13" Hg 1020.9 hPa